Time;durP1;ratioP1;P1;durP2;ratioP2;P2;SDS_P1;SDS_P2;PMS_P1;PMS_P2;Temp;Humidity;BMP_temperature;BMP_pressure;BME280_temperature;BME280_humidity;BME280_pressure;Samples;Min_cycle;Max_cycle;Signal;HPM_P1;HPM_P2
2021/05/10 00:01:30;;;;;;;5.65;2.28;;;21.10;45.50;;;;;;5094969;28;20031;-38
2021/05/10 00:03:56;;;;;;;4.75;1.95;;;21.10;45.20;;;;;;5095036;28;20529;-37
2021/05/10 00:06:21;;;;;;;2.25;2.03;;;21.40;44.30;;;;;;5095032;28;20016;-37
2021/05/10 00:08:48;;;;;;;4.03;2.20;;;21.30;44.70;;;;;;5093309;28;20104;-38
2021/05/10 00:11:14;;;;;;;2.53;1.88;;;21.20;44.90;;;;;;5094822;28;20024;-38
2021/05/10 00:13:45;;;;;;;4.57;2.47;;;21.10;45.00;;;;;;5093383;28;20051;-38
2021/05/10 00:16:10;;;;;;;;;;;21.20;45.00;;;;;;5095236;28;20024;-38
2021/05/10 00:18:36;;;;;;;5.50;1.42;;;21.20;45.00;;;;;;5094792;28;19911;-37
2021/05/10 00:21:02;;;;;;;5.15;2.30;;;20.90;45.80;;;;;;5094803;28;20039;-37
2021/05/10 00:23:27;;;;;;;3.80;1.40;;;20.80;46.20;;;;;;5094214;28;20032;-37
2021/05/10 00:25:53;;;;;;;5.40;1.73;;;20.70;46.70;;;;;;5094472;28;20076;-37
2021/05/10 00:28:19;;;;;;;1.38;1.27;;;20.80;46.10;;;;;;5094197;28;20024;-38
2021/05/10 00:30:44;;;;;;;5.18;2.50;;;20.80;46.30;;;;;;5093219;28;20016;-36
2021/05/10 00:33:10;;;;;;;1.45;1.00;;;20.70;46.90;;;;;;5093212;28;20028;-36
2021/05/10 00:35:36;;;;;;;5.30;1.75;;;20.70;46.80;;;;;;5094081;28;20441;-36
2021/05/10 00:38:02;;;;;;;6.35;1.67;;;20.80;46.70;;;;;;5094027;28;20073;-36
2021/05/10 00:40:31;;;;;;;3.67;2.40;;;20.60;46.80;;;;;;5094310;28;20024;-36
2021/05/10 00:42:58;;;;;;;4.18;2.72;;;20.60;47.20;;;;;;5093859;28;20039;-36
2021/05/10 00:45:24;;;;;;;5.40;1.33;;;20.70;46.60;;;;;;5093803;28;20042;-36
2021/05/10 00:47:50;;;;;;;6.43;1.45;;;20.70;46.80;;;;;;5094092;28;20032;-36
2021/05/10 00:50:16;;;;;;;5.57;2.05;;;20.80;46.50;;;;;;5094054;28;20549;-36
2021/05/10 00:52:42;;;;;;;9.13;1.50;;;20.80;46.80;;;;;;5093513;28;20040;-37
2021/05/10 00:55:10;;;;;;;4.07;1.80;;;20.80;45.80;;;;;;5092378;28;20036;-36
2021/05/10 00:57:40;;;;;;;3.50;1.55;;;21.10;45.30;;;;;;5094181;28;20020;-36
2021/05/10 01:00:08;;;;;;;7.90;2.20;;;21.00;45.40;;;;;;5094552;28;20058;-36
2021/05/10 01:02:35;;;;;;;5.03;2.30;;;21.20;44.70;;;;;;5093458;28;20067;-36
2021/05/10 01:05:02;;;;;;;3.50;1.77;;;21.30;44.50;;;;;;5093624;28;20024;-37
2021/05/10 01:07:27;;;;;;;3.50;1.85;;;21.30;44.20;;;;;;5093631;28;20024;-36
2021/05/10 01:09:53;;;;;;;8.60;2.53;;;21.40;44.20;;;;;;5093474;28;20154;-38
2021/05/10 01:12:19;;;;;;;3.35;1.38;;;21.50;43.60;;;;;;5093894;28;20028;-37
2021/05/10 01:14:44;;;;;;;1.88;1.20;;;21.60;43.40;;;;;;5093679;28;20031;-38
2021/05/10 01:17:10;;;;;;;5.95;1.55;;;21.50;43.50;;;;;;5093415;28;20042;-37
2021/05/10 01:19:36;;;;;;;4.53;1.60;;;21.60;43.20;;;;;;5091990;28;20038;-36
2021/05/10 01:22:05;;;;;;;6.40;1.55;;;21.60;43.30;;;;;;5093398;28;20380;-38
2021/05/10 01:24:31;;;;;;;1.52;1.13;;;21.60;43.40;;;;;;5093206;28;20085;-36
2021/05/10 01:26:57;;;;;;;1.55;1.30;;;21.60;43.50;;;;;;5093209;28;20034;-36
2021/05/10 01:29:23;;;;;;;9.32;1.73;;;21.30;44.00;;;;;;5093222;28;20443;-36
2021/05/10 01:31:49;;;;;;;3.55;1.40;;;21.30;44.30;;;;;;5093113;28;20028;-36
2021/05/10 01:34:15;;;;;;;4.00;1.25;;;21.30;44.30;;;;;;5092029;28;20028;-36
2021/05/10 01:36:41;;;;;;;4.97;1.30;;;21.40;43.90;;;;;;5093229;28;20046;-36
2021/05/10 01:39:07;;;;;;;5.55;2.50;;;21.30;44.20;;;;;;5093165;28;20020;-36
2021/05/10 01:41:33;;;;;;;12.77;2.00;;;21.30;44.40;;;;;;5093176;28;20020;-36
2021/05/10 01:43:59;;;;;;;1.75;1.25;;;21.30;44.20;;;;;;5093171;28;20020;-36
2021/05/10 01:46:25;;;;;;;3.97;1.90;;;21.30;44.50;;;;;;5093084;28;20376;-36
2021/05/10 01:48:50;;;;;;;4.00;1.90;;;21.30;44.30;;;;;;5093012;28;20383;-36
2021/05/10 01:51:20;;;;;;;3.65;1.40;;;21.50;43.60;;;;;;5092808;28;20028;-36
2021/05/10 01:53:46;;;;;;;3.70;1.23;;;21.60;43.20;;;;;;5093066;28;20035;-36
2021/05/10 01:56:12;;;;;;;1.65;1.35;;;21.60;43.30;;;;;;5093015;28;20476;-36
2021/05/10 01:58:37;;;;;;;2.58;1.38;;;21.60;43.10;;;;;;5092898;28;20392;-36
2021/05/10 02:01:03;;;;;;;2.28;1.27;;;21.60;43.10;;;;;;5093245;28;20056;-36
2021/05/10 02:03:29;;;;;;;6.88;1.55;;;21.70;42.70;;;;;;5091503;28;20072;-36
2021/05/10 02:05:54;;;;;;;2.15;1.30;;;21.50;43.20;;;;;;5092752;28;20024;-36
2021/05/10 02:08:20;;;;;;;3.33;1.10;;;21.70;42.50;;;;;;5093267;28;20028;-37
2021/05/10 02:10:51;;;;;;;3.17;1.30;;;21.50;42.60;;;;;;5091472;28;20356;-37
2021/05/10 02:13:23;;;;;;;12.25;3.13;;;21.60;42.50;;;;;;5091475;28;20391;-36
2021/05/10 02:15:55;;;;;;;3.35;1.10;;;21.80;41.60;;;;;;5091495;28;20020;-36
2021/05/10 02:18:24;;;;;;;1.67;1.38;;;21.80;41.50;;;;;;5092950;28;20471;-36
2021/05/10 02:20:50;;;;;;;3.95;2.10;;;21.80;41.50;;;;;;5091403;28;20020;-36
2021/05/10 02:23:21;;;;;;;3.85;1.42;;;21.90;41.40;;;;;;5092800;28;20141;-36
2021/05/10 02:25:55;;;;;;;7.63;4.10;;;21.80;42.20;;;;;;5092744;28;20024;-36
2021/05/10 02:28:23;;;;;;;6.78;1.27;;;21.70;43.20;;;;;;5092661;28;20036;-36
2021/05/10 02:30:50;;;;;;;2.28;1.30;;;21.60;43.40;;;;;;5092855;28;20028;-36
2021/05/10 02:33:19;;;;;;;1.83;1.30;;;21.60;43.00;;;;;;5092617;28;20119;-36
2021/05/10 02:35:46;;;;;;;4.13;1.50;;;21.80;42.40;;;;;;5092618;28;20052;-36
2021/05/10 02:38:13;;;;;;;1.90;1.27;;;21.80;42.00;;;;;;5092670;28;20027;-37
2021/05/10 02:40:39;;;;;;;1.45;1.10;;;21.80;41.90;;;;;;5092534;28;20063;-36
2021/05/10 02:43:05;;;;;;;3.92;1.63;;;21.80;41.70;;;;;;5092829;28;20372;-36
2021/05/10 02:45:31;;;;;;;4.82;1.35;;;21.80;41.80;;;;;;5093090;28;20028;-36
2021/05/10 02:47:57;;;;;;;6.22;1.40;;;21.70;42.80;;;;;;5092900;28;20070;-36
2021/05/10 02:50:25;;;;;;;5.18;2.08;;;21.70;42.50;;;;;;5092319;28;20484;-36
2021/05/10 02:52:52;;;;;;;3.38;1.20;;;21.70;42.60;;;;;;5092162;28;20444;-37
2021/05/10 02:55:18;;;;;;;2.38;0.88;;;21.70;42.10;;;;;;5093141;28;20020;-36
2021/05/10 02:57:48;;;;;;;3.75;1.60;;;21.70;42.40;;;;;;5096450;28;20508;-36
2021/05/10 03:00:15;;;;;;;5.45;1.60;;;21.80;42.10;;;;;;5096311;28;20024;-36
2021/05/10 03:02:41;;;;;;;6.22;1.58;;;21.80;42.00;;;;;;5096316;28;20023;-41
2021/05/10 03:05:09;;;;;;;3.13;1.55;;;21.70;42.60;;;;;;5096272;28;20486;-36
2021/05/10 03:07:35;;;;;;;2.00;1.48;;;21.60;42.70;;;;;;5096261;28;20024;-37
2021/05/10 03:10:06;;;;;;;3.55;1.70;;;21.40;43.40;;;;;;5096248;28;20024;-35
2021/05/10 03:12:31;;;;;;;;;;;21.30;43.50;;;;;;5095537;28;20522;-36
2021/05/10 03:14:57;;;;;;;2.25;1.20;;;21.30;43.60;;;;;;5095848;28;19904;-38
2021/05/10 03:17:23;;;;;;;3.95;2.03;;;21.40;43.00;;;;;;5095677;28;20028;-36
2021/05/10 03:19:49;;;;;;;4.53;1.23;;;21.30;43.30;;;;;;5095519;28;20043;-37
2021/05/10 03:22:15;;;;;;;1.90;1.10;;;21.20;43.80;;;;;;5095465;28;20028;-36
2021/05/10 03:24:41;;;;;;;5.13;1.40;;;21.20;43.90;;;;;;5095545;28;20099;-36
2021/05/10 03:27:07;;;;;;;2.40;1.63;;;21.10;44.10;;;;;;5095521;28;20306;-37
2021/05/10 03:29:33;;;;;;;5.15;1.52;;;21.10;44.40;;;;;;5094270;28;20082;-36
2021/05/10 03:31:58;;;;;;;4.22;1.65;;;21.00;44.50;;;;;;5095355;28;20074;-36
2021/05/10 03:34:24;;;;;;;2.75;1.17;;;20.90;44.70;;;;;;5095360;28;20055;-36
2021/05/10 03:36:50;;;;;;;1.42;1.20;;;20.90;44.60;;;;;;5095328;28;20031;-36
2021/05/10 03:39:15;;;;;;;1.67;1.00;;;20.80;44.70;;;;;;5095393;28;20483;-36
2021/05/10 03:41:41;;;;;;;4.63;1.17;;;21.00;44.10;;;;;;5093958;28;20024;-36
2021/05/10 03:44:07;;;;;;;3.50;1.77;;;21.20;43.70;;;;;;5093912;28;20035;-36
2021/05/10 03:46:32;;;;;;;3.05;1.27;;;21.00;44.30;;;;;;5095154;28;20039;-36
2021/05/10 03:48:58;;;;;;;2.03;1.17;;;20.90;44.40;;;;;;5095238;28;20024;-36
2021/05/10 03:51:24;;;;;;;2.53;1.23;;;21.00;44.30;;;;;;5095064;28;20066;-36
2021/05/10 03:53:49;;;;;;;2.70;0.90;;;21.00;44.30;;;;;;5095004;28;20111;-37
2021/05/10 03:56:15;;;;;;;3.15;1.30;;;20.80;45.00;;;;;;5095261;28;20027;-37
2021/05/10 03:58:40;;;;;;;1.50;1.15;;;20.80;45.20;;;;;;5094972;28;20024;-37
2021/05/10 04:01:07;;;;;;;2.45;1.10;;;20.50;45.70;;;;;;5095643;28;20024;-37
2021/05/10 04:03:42;;;;;;;2.20;1.10;;;20.60;45.70;;;;;;5095350;28;20032;-37
2021/05/10 04:06:22;;;;;;;2.55;1.50;;;20.60;45.60;;;;;;5095471;28;20043;-37
2021/05/10 04:14:15;;;;;;;1.75;1.10;;;20.70;45.50;;;;;;5095104;28;20486;-37
2021/05/10 04:16:41;;;;;;;3.25;1.83;;;20.70;45.70;;;;;;5095017;28;20020;-37
2021/05/10 04:19:07;;;;;;;3.35;1.35;;;20.80;45.40;;;;;;5094638;28;20025;-38
2021/05/10 04:21:32;;;;;;;1.70;1.23;;;20.60;45.80;;;;;;5094893;28;20071;-37
2021/05/10 04:23:58;;;;;;;3.83;1.42;;;20.70;45.40;;;;;;5094651;28;20034;-37
2021/05/10 04:26:23;;;;;;;6.50;3.25;;;20.80;44.70;;;;;;5094511;28;20079;-37
2021/05/10 04:28:49;;;;;;;2.35;1.23;;;20.80;45.30;;;;;;5094714;28;20036;-37
2021/05/10 04:31:15;;;;;;;5.30;1.30;;;20.50;45.90;;;;;;5093107;28;20468;-37
2021/05/10 04:33:40;;;;;;;3.28;1.50;;;20.70;45.20;;;;;;5094236;28;20032;-37
2021/05/10 04:36:06;;;;;;;2.50;1.27;;;20.90;44.70;;;;;;5094586;28;20024;-37
2021/05/10 04:38:32;;;;;;;3.05;1.05;;;20.90;44.80;;;;;;5094331;28;20525;-37
2021/05/10 04:40:59;;;;;;;1.80;1.38;;;21.00;44.40;;;;;;5094225;28;20036;-37
2021/05/10 04:43:25;;;;;;;1.23;1.13;;;21.10;44.10;;;;;;5092994;28;20027;-37
2021/05/10 04:45:51;;;;;;;2.45;0.98;;;21.20;44.00;;;;;;5094126;28;20027;-40
2021/05/10 04:48:16;;;;;;;4.00;1.27;;;21.30;43.60;;;;;;5094315;28;20020;-37
2021/05/10 04:50:42;;;;;;;2.80;1.45;;;21.30;43.60;;;;;;5094100;28;20543;-37
2021/05/10 04:53:12;;;;;;;1.70;1.25;;;21.40;43.80;;;;;;5092280;28;20055;-37
2021/05/10 04:55:39;;;;;;;1.65;1.17;;;21.30;45.80;;;;;;5092684;28;20036;-36
2021/05/10 04:58:05;;;;;;;2.10;0.70;;;21.00;47.00;;;;;;5093932;28;20036;-36
2021/05/10 05:00:30;;;;;;;2.83;1.02;;;20.80;49.10;;;;;;5093661;28;20525;-36
2021/05/10 05:02:56;;;;;;;5.70;1.40;;;20.50;50.10;;;;;;5093642;28;20015;-37
2021/05/10 05:05:22;;;;;;;3.92;1.30;;;20.30;51.20;;;;;;5093531;28;20510;-36
2021/05/10 05:07:47;;;;;;;2.92;1.45;;;20.20;52.90;;;;;;5093621;28;20038;-36
2021/05/10 05:10:14;;;;;;;3.83;2.05;;;20.10;53.60;;;;;;5093934;28;20111;-37
2021/05/10 05:12:39;;;;;;;3.72;1.33;;;19.90;54.20;;;;;;5093411;28;20050;-36
2021/05/10 05:15:10;;;;;;;1.80;1.38;;;19.80;55.20;;;;;;5093431;28;20032;-36
2021/05/10 05:17:37;;;;;;;3.42;1.30;;;19.80;54.50;;;;;;5093269;28;20031;-36
2021/05/10 05:20:07;;;;;;;5.03;1.40;;;19.80;54.50;;;;;;5093398;28;20051;-36
2021/05/10 05:22:34;;;;;;;2.78;2.05;;;19.80;54.60;;;;;;5093663;28;20388;-36
2021/05/10 05:24:59;;;;;;;9.10;1.70;;;19.90;53.80;;;;;;5093310;28;20107;-37
2021/05/10 05:27:25;;;;;;;6.57;1.80;;;20.00;53.50;;;;;;5093609;28;20059;-37
2021/05/10 05:29:52;;;;;;;5.93;2.78;;;20.00;53.40;;;;;;5093169;28;20046;-37
2021/05/10 05:32:19;;;;;;;3.45;1.25;;;20.00;53.80;;;;;;5093365;28;20062;-38
2021/05/10 05:34:45;;;;;;;5.00;1.60;;;19.90;53.90;;;;;;5093553;28;20353;-38
2021/05/10 05:37:10;;;;;;;4.93;1.15;;;20.00;53.50;;;;;;5091898;28;20112;-37
2021/05/10 05:39:36;;;;;;;2.05;1.10;;;20.00;53.60;;;;;;5093023;28;20016;-39
2021/05/10 05:42:02;;;;;;;12.77;1.67;;;20.00;53.40;;;;;;5093482;28;20035;-37
2021/05/10 05:44:32;;;;;;;5.30;1.63;;;20.00;53.10;;;;;;5093024;28;20032;-38
2021/05/10 05:47:01;;;;;;;6.30;2.05;;;20.10;53.00;;;;;;5093094;28;20094;-38
2021/05/10 05:49:27;;;;;;;5.72;1.63;;;20.10;52.90;;;;;;5093017;28;20108;-37
2021/05/10 05:51:52;;;;;;;3.17;1.40;;;20.00;53.00;;;;;;5092842;28;20079;-37
2021/05/10 05:54:18;;;;;;;4.93;1.73;;;20.20;52.70;;;;;;5093241;28;20063;-37
2021/05/10 05:56:44;;;;;;;5.35;1.38;;;20.10;52.60;;;;;;5093153;28;20024;-37
2021/05/10 05:59:10;;;;;;;4.78;1.85;;;20.20;52.10;;;;;;5093077;28;20068;-37
2021/05/10 06:01:35;;;;;;;4.15;1.83;;;20.10;52.20;;;;;;5093139;28;20103;-37
2021/05/10 06:04:01;;;;;;;4.60;1.10;;;20.20;52.40;;;;;;5093202;28;20028;-37
2021/05/10 06:06:27;;;;;;;11.32;1.70;;;20.20;52.30;;;;;;5091725;28;20027;-38
2021/05/10 06:08:53;;;;;;;9.77;2.53;;;20.20;52.00;;;;;;5093004;28;20157;-39
2021/05/10 06:11:19;;;;;;;12.13;2.47;;;20.10;52.80;;;;;;5092820;28;20016;-38
2021/05/10 06:13:44;;;;;;;8.80;1.63;;;20.10;52.50;;;;;;5092685;28;20491;-38
2021/05/10 06:16:10;;;;;;;4.30;1.60;;;20.10;52.40;;;;;;5092959;28;20024;-38
2021/05/10 06:18:36;;;;;;;3.13;1.40;;;20.10;52.40;;;;;;5092734;28;20024;-39
2021/05/10 06:21:05;;;;;;;2.08;1.70;;;20.10;52.70;;;;;;5092958;28;20034;-37
2021/05/10 06:23:31;;;;;;;7.55;2.00;;;20.10;53.00;;;;;;5093243;28;20481;-38
2021/05/10 06:25:57;;;;;;;5.28;1.55;;;20.10;53.40;;;;;;5091378;28;20024;-38
2021/05/10 06:28:23;;;;;;;2.65;1.42;;;20.10;52.90;;;;;;5092705;28;20068;-37
2021/05/10 06:30:48;;;;;;;2.38;1.55;;;20.10;53.10;;;;;;5094157;28;20028;-37
2021/05/10 06:33:14;;;;;;;4.55;1.80;;;20.00;53.40;;;;;;5096861;28;20063;-37
2021/05/10 06:35:40;;;;;;;3.58;1.40;;;20.00;53.30;;;;;;5096504;28;20123;-38
2021/05/10 06:38:05;;;;;;;5.47;1.75;;;20.00;54.10;;;;;;5096686;28;20028;-37
2021/05/10 06:40:31;;;;;;;5.35;1.90;;;19.80;55.40;;;;;;5096464;28;20073;-38
2021/05/10 06:42:57;;;;;;;7.40;2.15;;;19.60;56.50;;;;;;5096263;28;20024;-37
2021/05/10 06:45:23;;;;;;;2.08;1.40;;;19.60;57.10;;;;;;5096692;28;20035;-38
2021/05/10 06:47:50;;;;;;;13.70;1.85;;;19.60;57.50;;;;;;5096475;28;20499;-38
2021/05/10 06:50:15;;;;;;;9.77;1.58;;;19.70;56.40;;;;;;5095122;28;20097;-37
2021/05/10 06:52:41;;;;;;;7.72;1.48;;;19.90;55.40;;;;;;5095511;28;20083;-37
2021/05/10 06:55:08;;;;;;;4.45;1.70;;;19.80;56.70;;;;;;5095886;28;20036;-37
2021/05/10 06:57:33;;;;;;;10.05;2.47;;;19.70;56.60;;;;;;5096038;28;20027;-38
2021/05/10 07:00:00;;;;;;;2.28;1.70;;;19.70;56.10;;;;;;5095835;28;20024;-37
2021/05/10 07:02:26;;;;;;;7.10;1.80;;;19.70;55.50;;;;;;5095931;28;20491;-38
2021/05/10 07:04:52;;;;;;;4.40;1.60;;;19.70;55.60;;;;;;5095740;28;20444;-37
2021/05/10 07:07:18;;;;;;;5.40;1.58;;;19.90;54.90;;;;;;5095360;28;20399;-38
2021/05/10 07:09:44;;;;;;;6.00;1.67;;;20.50;53.40;;;;;;5095765;28;20027;-38
2021/05/10 07:12:12;;;;;;;10.45;5.20;;;20.80;52.20;;;;;;5094286;28;20028;-37
2021/05/10 07:14:41;;;;;;;9.70;1.80;;;20.90;52.00;;;;;;5095920;28;20486;-39
2021/05/10 07:17:07;;;;;;;2.88;1.73;;;21.10;51.40;;;;;;5095896;28;20099;-38
2021/05/10 07:19:33;;;;;;;4.63;1.42;;;20.80;51.60;;;;;;5095605;28;20022;-37
2021/05/10 07:21:59;;;;;;;5.57;2.30;;;20.80;51.80;;;;;;5095631;28;20028;-38
2021/05/10 07:24:24;;;;;;;4.70;1.88;;;20.80;52.00;;;;;;5093995;28;20069;-38
2021/05/10 07:26:50;;;;;;;8.63;1.95;;;20.90;52.30;;;;;;5095073;28;20142;-39
2021/05/10 07:29:16;;;;;;;5.85;1.60;;;20.90;52.10;;;;;;5095245;28;20392;-37
2021/05/10 07:31:41;;;;;;;5.57;1.55;;;20.90;52.20;;;;;;5094897;28;20439;-38
2021/05/10 07:34:07;;;;;;;2.90;1.38;;;21.00;51.90;;;;;;5095241;28;20032;-38
2021/05/10 07:36:33;;;;;;;5.32;1.88;;;21.10;51.80;;;;;;5093637;28;20024;-37
2021/05/10 07:38:59;;;;;;;5.28;1.80;;;21.10;51.70;;;;;;5094928;28;20023;-37
2021/05/10 07:41:24;;;;;;;3.88;1.60;;;21.60;50.10;;;;;;5094696;28;20020;-37
2021/05/10 07:43:50;;;;;;;6.05;2.00;;;21.90;48.80;;;;;;5094898;28;20035;-38
2021/05/10 07:46:16;;;;;;;2.72;1.52;;;21.90;48.60;;;;;;5094688;28;20038;-37
2021/05/10 07:48:41;;;;;;;2.83;1.65;;;22.00;48.00;;;;;;5095048;28;20467;-38
2021/05/10 07:51:07;;;;;;;4.10;1.45;;;22.40;47.30;;;;;;5094601;28;20106;-38
2021/05/10 07:53:33;;;;;;;3.10;1.10;;;22.30;47.30;;;;;;5094751;28;20032;-38
2021/05/10 07:55:59;;;;;;;2.80;1.27;;;22.80;45.10;;;;;;5094529;28;20383;-39
2021/05/10 07:58:26;;;;;;;7.05;1.33;;;23.00;44.50;;;;;;5094605;28;20031;-38
2021/05/10 08:00:58;;;;;;;6.13;1.50;;;22.60;44.70;;;;;;5095128;28;20475;-37
2021/05/10 08:03:27;;;;;;;3.08;1.40;;;22.30;45.80;;;;;;5094676;28;20032;-38
2021/05/10 08:05:53;;;;;;;2.15;1.20;;;22.20;46.20;;;;;;5094397;28;20028;-38
2021/05/10 08:08:22;;;;;;;3.72;1.13;;;22.00;47.10;;;;;;5094230;28;20035;-38
2021/05/10 08:10:47;;;;;;;2.65;1.45;;;21.70;46.30;;;;;;5092707;28;20036;-38
2021/05/10 08:13:14;;;;;;;2.40;1.02;;;21.60;46.60;;;;;;5094474;28;20035;-38
2021/05/10 08:15:40;;;;;;;2.33;0.93;;;21.40;46.80;;;;;;5094315;28;20066;-37
2021/05/10 08:18:06;;;;;;;2.53;0.90;;;21.40;47.10;;;;;;5094097;28;20494;-38
2021/05/10 08:20:32;;;;;;;1.58;1.05;;;21.60;46.90;;;;;;5094005;28;20099;-37
2021/05/10 08:22:58;;;;;;;2.55;0.82;;;21.20;47.80;;;;;;5094343;28;20023;-38
2021/05/10 08:25:24;;;;;;;4.30;0.98;;;20.90;48.60;;;;;;5094369;28;20046;-38
2021/05/10 08:27:50;;;;;;;2.05;1.15;;;20.80;48.70;;;;;;5094025;28;20112;-38
2021/05/10 08:30:17;;;;;;;6.30;1.38;;;20.70;48.70;;;;;;5094359;28;20032;-38
2021/05/10 08:32:43;;;;;;;4.57;1.02;;;20.60;48.90;;;;;;5093995;28;20020;-42
2021/05/10 08:35:10;;;;;;;5.25;1.05;;;20.80;48.90;;;;;;5093590;28;20016;-37
2021/05/10 08:37:37;;;;;;;5.38;1.23;;;20.70;49.40;;;;;;5092507;28;20081;-37
2021/05/10 08:40:04;;;;;;;2.42;1.05;;;20.90;49.30;;;;;;5093962;28;20028;-38
2021/05/10 08:42:31;;;;;;;1.10;0.70;;;21.10;49.10;;;;;;5093673;28;20024;-38
2021/05/10 08:45:00;;;;;;;2.33;0.88;;;20.70;49.70;;;;;;5093833;28;20024;-38
2021/05/10 08:47:32;;;;;;;2.97;1.20;;;20.80;49.60;;;;;;5093968;28;20561;-38
2021/05/10 08:49:58;;;;;;;6.88;1.20;;;20.80;49.40;;;;;;5093725;28;20036;-38
2021/05/10 08:52:24;;;;;;;2.47;0.80;;;20.70;50.00;;;;;;5093052;28;20055;-38
2021/05/10 08:54:50;;;;;;;7.68;0.80;;;21.00;49.40;;;;;;5092750;28;20020;-38
2021/05/10 08:57:15;;;;;;;1.48;0.85;;;21.30;48.90;;;;;;5093686;28;20123;-38
2021/05/10 08:59:43;;;;;;;1.75;0.77;;;21.60;47.90;;;;;;5093934;28;20059;-37
2021/05/10 09:02:10;;;;;;;1.48;0.77;;;21.40;48.20;;;;;;5093264;28;20039;-38
2021/05/10 09:04:41;;;;;;;0.98;0.50;;;20.90;49.70;;;;;;5093392;28;20443;-37
2021/05/10 09:07:13;;;;;;;2.10;0.63;;;20.80;49.70;;;;;;5093430;28;20114;-39
2021/05/10 09:09:59;;;;;;;0.93;0.60;;;21.00;49.30;;;;;;5093235;28;20024;-38
2021/05/10 09:12:48;;;;;;;2.10;0.47;;;20.40;50.00;;;;;;5093234;28;20020;-39
2021/05/10 09:15:25;;;;;;;2.05;0.65;;;20.10;51.10;;;;;;5092108;28;20024;-40
2021/05/10 09:18:04;;;;;;;0.52;0.52;;;19.80;51.30;;;;;;5093475;28;20039;-38
2021/05/10 09:20:36;;;;;;;0.98;0.32;;;19.80;51.90;;;;;;5091826;28;20472;-38
2021/05/10 09:23:08;;;;;;;2.38;0.80;;;19.90;52.10;;;;;;5093118;28;20024;-38
2021/05/10 09:25:36;;;;;;;0.60;0.60;;;19.80;52.00;;;;;;5093140;28;20032;-38
2021/05/10 09:28:11;;;;;;;2.80;0.70;;;19.90;52.10;;;;;;5092770;28;20044;-38
2021/05/10 09:30:38;;;;;;;3.63;0.80;;;20.00;52.00;;;;;;5091346;28;20024;-38
2021/05/10 09:33:04;;;;;;;6.47;0.60;;;19.80;52.10;;;;;;5093328;28;20491;-38
2021/05/10 09:35:31;;;;;;;1.58;0.60;;;19.80;52.30;;;;;;5092969;28;20015;-38
2021/05/10 09:38:00;;;;;;;3.20;0.77;;;19.80;52.60;;;;;;5093203;28;20020;-37
2021/05/10 09:40:29;;;;;;;1.83;0.50;;;19.70;53.20;;;;;;5093007;28;20032;-37
2021/05/10 09:42:56;;;;;;;1.23;0.82;;;19.70;53.00;;;;;;5092714;28;20031;-37
2021/05/10 09:45:28;;;;;;;1.67;0.60;;;19.80;52.90;;;;;;5092809;28;20028;-37
2021/05/10 09:48:12;;;;;;;2.03;0.50;;;19.90;52.50;;;;;;5093040;28;20024;-37
2021/05/10 09:50:39;;;;;;;1.67;0.60;;;19.90;52.90;;;;;;5093211;28;20043;-38
2021/05/10 09:53:06;;;;;;;1.33;0.60;;;20.30;51.40;;;;;;5090901;28;20051;-39
2021/05/10 09:55:51;;;;;;;0.68;0.50;;;20.80;50.30;;;;;;5092406;28;20031;-38
2021/05/10 09:58:18;;;;;;;2.75;0.60;;;20.90;49.60;;;;;;5092663;28;20040;-38
2021/05/10 10:00:44;;;;;;;3.30;0.55;;;21.50;48.00;;;;;;5092455;28;20020;-39
2021/05/10 10:03:28;;;;;;;2.63;0.50;;;21.70;47.00;;;;;;5091239;28;20484;-39
2021/05/10 10:05:56;;;;;;;1.42;0.63;;;21.70;47.50;;;;;;5095921;28;20100;-38
2021/05/10 10:08:23;;;;;;;2.70;1.20;;;21.30;48.30;;;;;;5096764;28;20023;-38
2021/05/10 10:10:49;;;;;;;1.95;0.90;;;21.30;48.40;;;;;;5096913;28;20047;-38
2021/05/10 10:13:16;;;;;;;0.70;0.70;;;21.30;48.70;;;;;;5096361;28;20024;-38
2021/05/10 10:15:43;;;;;;;2.17;0.47;;;21.10;48.10;;;;;;5096419;28;20050;-37
2021/05/10 10:18:12;;;;;;;6.13;1.50;;;20.30;50.10;;;;;;5096469;28;20384;-37
2021/05/10 10:20:39;;;;;;;3.95;0.98;;;20.60;49.20;;;;;;5095403;28;20031;-37
2021/05/10 10:23:09;;;;;;;1.63;0.28;;;20.40;50.10;;;;;;5096505;28;20039;-38
2021/05/10 10:25:36;;;;;;;1.63;0.60;;;20.60;49.70;;;;;;5096717;28;20028;-38
2021/05/10 10:28:05;;;;;;;1.90;0.70;;;20.90;49.60;;;;;;5096438;28;20023;-38
2021/05/10 10:30:32;;;;;;;7.22;0.95;;;20.40;50.40;;;;;;5096671;28;20069;-38
2021/05/10 10:33:02;;;;;;;5.88;0.70;;;20.40;51.10;;;;;;5095113;28;20028;-39
2021/05/10 10:35:29;;;;;;;0.63;0.60;;;20.30;51.20;;;;;;5096495;28;20104;-38
2021/05/10 10:37:55;;;;;;;0.82;0.60;;;20.10;51.60;;;;;;5094383;28;20426;-37
2021/05/10 10:40:21;;;;;;;6.60;0.80;;;19.90;51.80;;;;;;5095691;28;20095;-38
2021/05/10 10:42:48;;;;;;;0.47;0.47;;;19.90;51.70;;;;;;5096185;28;20024;-38
2021/05/10 10:45:21;;;;;;;1.45;0.50;;;19.80;50.20;;;;;;5096550;28;20024;-37
2021/05/10 10:47:54;;;;;;;2.80;0.60;;;20.10;49.50;;;;;;5096723;28;20217;-38
2021/05/10 10:50:22;;;;;;;1.38;1.05;;;19.90;48.80;;;;;;5095190;28;20529;-39
2021/05/10 10:52:56;;;;;;;1.02;0.70;;;20.20;48.40;;;;;;5095957;28;20139;-37
2021/05/10 10:55:27;;;;;;;2.85;0.70;;;20.00;48.50;;;;;;5094615;28;20427;-37
2021/05/10 10:57:53;;;;;;;0.93;0.70;;;19.80;49.40;;;;;;5095943;28;20025;-40
2021/05/10 11:00:20;;;;;;;1.20;0.50;;;20.00;49.10;;;;;;5095808;28;20073;-37
2021/05/10 11:02:51;;;;;;;1.80;0.70;;;20.50;48.70;;;;;;5096412;28;20036;-38
2021/05/10 11:05:25;;;;;;;3.80;0.57;;;20.60;48.40;;;;;;5095675;28;20111;-38
2021/05/10 11:07:52;;;;;;;0.47;0.40;;;20.10;49.50;;;;;;5095318;28;20031;-39
2021/05/10 11:10:50;;;;;;;3.25;0.70;;;19.90;50.10;;;;;;5095762;28;20534;-38
2021/05/10 11:13:28;;;;;;;1.25;0.57;;;20.10;50.20;;;;;;5095487;28;20077;-37
2021/05/10 11:16:02;;;;;;;1.20;1.05;;;20.10;50.60;;;;;;5095331;28;20024;-38
2021/05/10 11:18:43;;;;;;;0.80;0.68;;;20.20;50.10;;;;;;5096490;28;20085;-38
2021/05/10 11:21:22;;;;;;;7.45;3.17;;;20.40;49.60;;;;;;5095526;28;20032;-38
2021/05/10 11:23:51;;;;;;;2.97;0.77;;;20.60;49.50;;;;;;5095884;28;20463;-39
2021/05/10 11:26:37;;;;;;;0.95;0.70;;;20.40;50.20;;;;;;5095505;28;20099;-39
2021/05/10 11:29:05;;;;;;;2.72;0.90;;;20.10;51.00;;;;;;5095621;28;20024;-38
2021/05/10 11:31:39;;;;;;;4.32;1.00;;;20.00;51.30;;;;;;5095329;28;20057;-38
2021/05/10 11:34:09;;;;;;;3.65;1.00;;;19.70;52.30;;;;;;5095680;28;20039;-38
2021/05/10 11:36:37;;;;;;;1.30;0.75;;;19.50;52.60;;;;;;5095068;28;20091;-38
2021/05/10 11:39:10;;;;;;;2.78;0.70;;;19.40;52.70;;;;;;5095275;28;20080;-38
2021/05/10 11:41:42;;;;;;;1.35;0.70;;;19.70;52.70;;;;;;5095470;28;20055;-37
2021/05/10 11:44:35;;;;;;;1.80;0.98;;;19.90;52.20;;;;;;5095314;28;20024;-37
2021/05/10 11:47:03;;;;;;;3.17;0.85;;;20.50;50.60;;;;;;5095471;28;20432;-37
2021/05/10 11:49:34;;;;;;;0.73;0.73;;;20.60;50.60;;;;;;5095187;28;20472;-37
2021/05/10 11:52:08;;;;;;;2.47;1.17;;;21.40;48.40;;;;;;5094692;28;20226;-38
2021/05/10 11:54:35;;;;;;;1.55;0.60;;;21.10;49.30;;;;;;5095031;28;20077;-38
2021/05/10 11:57:03;;;;;;;0.93;0.70;;;20.50;50.60;;;;;;5093643;28;20027;-38
2021/05/10 12:02:12;;;;;;;2.25;1.48;;;20.70;50.50;;;;;;5095106;28;20031;-38
2021/05/10 12:04:44;;;;;;;1.15;0.80;;;20.80;50.20;;;;;;5095365;28;20080;-38
2021/05/10 12:07:11;;;;;;;2.53;1.00;;;21.10;48.90;;;;;;5095119;28;20070;-38
2021/05/10 12:09:38;;;;;;;0.95;0.70;;;20.80;50.70;;;;;;5095186;28;20028;-39
2021/05/10 12:12:27;;;;;;;1.25;0.90;;;21.20;49.60;;;;;;5094583;28;20024;-38
2021/05/10 12:14:58;;;;;;;1.92;0.88;;;21.30;49.50;;;;;;5093691;28;20020;-38
2021/05/10 12:17:27;;;;;;;1.13;1.00;;;20.80;50.20;;;;;;5094991;28;20024;-38
2021/05/10 12:20:04;;;;;;;1.05;0.73;;;20.80;50.90;;;;;;5095020;28;20024;-39
2021/05/10 12:22:40;;;;;;;1.75;1.17;;;20.70;51.40;;;;;;5076035;28;20028;-39
2021/05/10 12:25:12;;;;;;;1.27;1.00;;;20.40;52.50;;;;;;5094487;28;20103;-37
2021/05/10 12:27:49;;;;;;;1.73;0.80;;;20.20;52.00;;;;;;5093929;28;20480;-40
2021/05/10 12:30:37;;;;;;;1.00;0.63;;;20.30;52.50;;;;;;5094602;28;20362;-38
2021/05/10 12:33:12;;;;;;;0.95;0.90;;;20.30;51.20;;;;;;5094508;28;20050;-38
2021/05/10 12:35:46;;;;;;;2.40;0.93;;;20.40;51.10;;;;;;5093640;28;20061;-37
2021/05/10 12:38:23;;;;;;;1.25;1.05;;;20.50;50.50;;;;;;5094222;28;20034;-38
2021/05/10 12:40:49;;;;;;;1.30;1.10;;;20.70;50.40;;;;;;5094275;28;20379;-38
2021/05/10 12:43:17;;;;;;;4.85;1.02;;;20.30;52.10;;;;;;5094082;28;20123;-38
2021/05/10 12:45:58;;;;;;;1.30;1.10;;;20.60;51.50;;;;;;5094066;28;20055;-38
2021/05/10 12:48:35;;;;;;;2.72;1.38;;;20.30;52.10;;;;;;5094371;28;20058;-38
2021/05/10 12:51:09;;;;;;;8.38;1.95;;;20.00;54.50;;;;;;5071100;28;20891;-38
2021/05/10 12:53:38;;;;;;;6.25;1.63;;;19.20;57.80;;;;;;5070370;28;20057;-38
2021/05/10 12:56:07;;;;;;;2.00;1.77;;;19.10;58.40;;;;;;5070504;28;20021;-38
2021/05/10 12:58:43;;;;;;;4.18;1.80;;;18.90;59.10;;;;;;5070481;28;20472;-38
2021/05/10 13:01:20;;;;;;;4.80;1.83;;;18.10;61.60;;;;;;5070462;28;20538;-37